createdAt,value
2019-02-20T00:00:42.983Z,12.63
2019-02-20T00:02:46.640Z,8.70
2019-02-20T00:04:50.339Z,9.63
2019-02-20T00:06:54.081Z,8.27
2019-02-20T00:08:59.299Z,8.80
2019-02-20T00:11:02.990Z,9.10
2019-02-20T00:13:06.775Z,8.90
2019-02-20T00:15:10.549Z,9.33
2019-02-20T00:17:14.216Z,8.53
2019-02-20T00:19:17.987Z,8.17
2019-02-20T00:21:21.647Z,7.73
2019-02-20T00:23:25.308Z,8.23
2019-02-20T00:25:28.984Z,7.13
2019-02-20T00:27:32.651Z,7.23
2019-02-20T00:29:36.336Z,7.90
2019-02-20T00:31:40.067Z,8.27
2019-02-20T00:33:43.722Z,8.10
2019-02-20T00:35:47.417Z,7.63
2019-02-20T00:37:51.230Z,8.30
2019-02-20T00:39:54.911Z,7.23
2019-02-20T00:41:58.608Z,8.33
2019-02-20T00:44:03.844Z,7.30
2019-02-20T00:46:09.111Z,7.13
2019-02-20T00:48:14.359Z,7.30
2019-02-20T00:50:19.088Z,7.43
2019-02-20T00:52:35.820Z,7.43
2019-02-20T00:54:39.483Z,7.53
2019-02-20T00:56:43.171Z,7.70
2019-02-20T00:58:46.835Z,8.10
2019-02-20T01:00:50.600Z,8.10
2019-02-20T01:02:54.284Z,7.90
2019-02-20T01:04:57.938Z,8.07
2019-02-20T01:07:01.660Z,8.20
2019-02-20T01:09:06.426Z,8.20
2019-02-20T01:11:10.140Z,7.70
2019-02-20T01:13:13.827Z,7.60
2019-02-20T01:15:17.534Z,7.80
2019-02-20T01:17:21.232Z,8.03
2019-02-20T01:19:24.892Z,7.47
2019-02-20T01:21:28.749Z,7.57
2019-02-20T01:23:32.472Z,9.40
2019-02-20T01:25:36.144Z,9.13
2019-02-20T01:27:39.818Z,8.67
2019-02-20T01:29:43.500Z,9.53
2019-02-20T01:31:47.199Z,9.17
2019-02-20T01:33:51.072Z,10.40
2019-02-20T01:35:54.733Z,11.30
2019-02-20T01:37:58.426Z,9.40
2019-02-20T01:40:02.138Z,8.97
2019-02-20T01:42:05.823Z,10.70
2019-02-20T01:44:09.476Z,8.87
2019-02-20T01:46:13.233Z,8.07
2019-02-20T01:48:16.939Z,8.57
2019-02-20T01:50:20.682Z,7.97
2019-02-20T01:52:24.342Z,8.13
2019-02-20T01:54:28.040Z,7.90
2019-02-20T01:56:31.694Z,9.20
2019-02-20T01:58:35.479Z,7.90
2019-02-20T02:00:39.156Z,8.27
2019-02-20T02:02:42.864Z,7.70
2019-02-20T02:04:46.519Z,8.23
2019-02-20T02:06:50.174Z,7.20
2019-02-20T02:08:53.921Z,7.60
2019-02-20T02:10:57.737Z,9.07
2019-02-20T02:13:01.468Z,9.53
2019-02-20T02:15:06.693Z,8.77
2019-02-20T02:17:10.505Z,9.10
2019-02-20T02:19:14.205Z,8.43
2019-02-20T02:21:17.867Z,9.10
2019-02-20T02:23:21.562Z,9.13
2019-02-20T02:25:25.252Z,9.07
2019-02-20T02:27:28.906Z,9.50
2019-02-20T02:29:32.604Z,9.57
2019-02-20T02:31:36.275Z,8.47
2019-02-20T02:33:39.968Z,9.83
2019-02-20T02:35:43.644Z,10.23
2019-02-20T02:37:47.403Z,11.30
2019-02-20T02:39:51.119Z,10.00
2019-02-20T02:41:54.791Z,10.10
2019-02-20T02:43:58.542Z,10.50
2019-02-20T02:46:02.242Z,10.77
2019-02-20T02:48:05.987Z,10.37
2019-02-20T02:50:09.742Z,9.60
2019-02-20T02:52:13.409Z,10.00
2019-02-20T02:54:17.110Z,10.47
2019-02-20T02:56:20.785Z,9.70
2019-02-20T02:58:24.496Z,10.20
2019-02-20T03:00:28.195Z,10.70
2019-02-20T03:02:31.859Z,10.17
2019-02-20T03:04:35.528Z,11.27
2019-02-20T03:06:39.226Z,11.37
2019-02-20T03:08:42.944Z,11.73
2019-02-20T03:10:46.732Z,11.17
2019-02-20T03:12:50.415Z,12.13
2019-02-20T03:14:54.109Z,11.67
2019-02-20T03:16:58.070Z,11.23
2019-02-20T03:19:01.752Z,11.13
2019-02-20T03:21:05.452Z,10.87
2019-02-20T03:23:09.111Z,12.20
2019-02-20T03:25:12.890Z,11.40
2019-02-20T03:27:16.571Z,12.77
2019-02-20T03:29:20.243Z,10.90
2019-02-20T03:31:23.937Z,12.07
2019-02-20T03:33:27.611Z,11.80
2019-02-20T03:35:31.316Z,11.30
2019-02-20T03:37:35.005Z,11.30
2019-02-20T03:39:38.663Z,11.17
2019-02-20T03:41:42.439Z,11.40
2019-02-20T03:43:46.110Z,11.63
2019-02-20T03:45:49.828Z,10.13
2019-02-20T03:47:53.493Z,10.87
2019-02-20T03:49:57.152Z,10.60
2019-02-20T03:52:00.890Z,10.03
2019-02-20T03:54:04.561Z,10.57
2019-02-20T03:56:08.252Z,10.67
2019-02-20T03:58:12.011Z,10.53
2019-02-20T04:00:15.768Z,11.10
2019-02-20T04:02:19.437Z,11.03
2019-02-20T04:04:23.106Z,11.50
2019-02-20T04:06:26.821Z,10.53
2019-02-20T04:08:30.495Z,10.50
2019-02-20T04:10:34.157Z,10.50
2019-02-20T04:12:37.965Z,10.27
2019-02-20T04:14:41.667Z,10.47
2019-02-20T04:16:45.356Z,10.87
2019-02-20T04:18:49.024Z,10.17
2019-02-20T04:20:52.697Z,11.00
2019-02-20T04:22:56.379Z,10.73
2019-02-20T04:25:00.034Z,11.60
2019-02-20T04:27:03.758Z,11.73
2019-02-20T04:29:07.502Z,10.97
2019-02-20T04:31:11.169Z,10.80
2019-02-20T04:33:15.052Z,10.60
2019-02-20T04:35:18.770Z,11.40
2019-02-20T04:37:22.467Z,10.60
2019-02-20T04:39:26.193Z,11.13
2019-02-20T04:41:29.848Z,11.17
2019-02-20T04:43:33.626Z,11.17
2019-02-20T04:45:37.304Z,11.03
2019-02-20T04:47:41.018Z,11.47
2019-02-20T04:49:44.739Z,11.33
2019-02-20T04:51:48.421Z,13.73
2019-02-20T04:53:52.125Z,11.80
2019-02-20T04:55:55.784Z,11.93
2019-02-20T04:58:16.275Z,11.03
2019-02-20T05:00:19.945Z,11.80
2019-02-20T05:02:23.606Z,11.23
2019-02-20T05:04:27.296Z,12.27
2019-02-20T05:06:30.966Z,12.33
2019-02-20T05:08:34.668Z,12.27
2019-02-20T05:10:38.344Z,12.03
2019-02-20T05:12:42.104Z,11.83
2019-02-20T05:14:45.785Z,11.73
2019-02-20T05:16:49.461Z,12.20
2019-02-20T05:18:53.148Z,11.73
2019-02-20T05:20:56.819Z,11.83
2019-02-20T05:23:00.479Z,11.80
2019-02-20T05:25:04.808Z,12.37
2019-02-20T05:27:08.623Z,13.10
2019-02-20T05:29:12.450Z,13.87
2019-02-20T05:31:16.640Z,12.63
2019-02-20T05:33:20.646Z,11.87
2019-02-20T05:35:24.331Z,11.73
2019-02-20T05:37:28.014Z,12.30
2019-02-20T05:39:31.812Z,11.80
2019-02-20T05:41:35.480Z,12.43
2019-02-20T05:43:39.147Z,13.63
2019-02-20T05:45:42.839Z,12.43
2019-02-20T05:47:46.512Z,12.73
2019-02-20T05:49:50.215Z,12.80
2019-02-20T05:51:53.906Z,12.73
2019-02-20T05:53:57.592Z,14.27
2019-02-20T05:56:01.274Z,13.40
2019-02-20T05:58:04.946Z,13.27
2019-02-20T06:00:11.722Z,13.47
2019-02-20T06:02:15.507Z,12.90
2019-02-20T06:04:19.176Z,13.93
2019-02-20T06:06:22.947Z,14.30
2019-02-20T06:08:26.616Z,13.83
2019-02-20T06:10:30.304Z,13.63
2019-02-20T06:12:33.969Z,12.83
2019-02-20T06:14:37.656Z,13.23
2019-02-20T06:16:41.335Z,13.13
2019-02-20T06:18:45.103Z,13.00
2019-02-20T06:20:48.872Z,13.53
2019-02-20T06:25:27.795Z,13.40
2019-02-20T06:27:31.514Z,13.37
2019-02-20T06:29:35.178Z,13.20
2019-02-20T06:31:38.883Z,13.77
2019-02-20T06:33:42.556Z,13.50
2019-02-20T06:35:46.329Z,13.67
2019-02-20T06:37:50.039Z,14.07
2019-02-20T06:39:53.694Z,13.07
2019-02-20T06:41:57.505Z,14.07
2019-02-20T06:44:01.162Z,13.83
2019-02-20T06:46:04.858Z,13.10
2019-02-20T06:48:08.599Z,14.13
2019-02-20T06:50:12.274Z,13.53
2019-02-20T06:52:15.998Z,13.07
2019-02-20T06:54:19.651Z,13.20
2019-02-20T06:56:23.373Z,13.60
2019-02-20T06:58:27.045Z,13.07
2019-02-20T07:00:30.830Z,14.63
2019-02-20T07:02:35.770Z,19.43
2019-02-20T07:04:39.566Z,19.03
2019-02-20T07:06:52.182Z,15.30
2019-02-20T07:09:15.228Z,15.83
2019-02-20T07:11:44.648Z,13.63
2019-02-20T07:14:07.671Z,14.80
2019-02-20T07:16:46.875Z,16.50
2019-02-20T07:19:10.540Z,15.57
2019-02-20T07:21:41.987Z,14.87
2019-02-20T07:23:54.127Z,14.50
2019-02-20T07:26:17.418Z,15.23
2019-02-20T07:28:35.182Z,17.23
2019-02-20T07:30:38.852Z,15.70
2019-02-20T07:32:42.640Z,15.30
2019-02-20T07:34:46.312Z,16.07
2019-02-20T07:36:49.980Z,55.97
2019-02-20T07:38:53.736Z,50.90
2019-02-20T07:40:57.403Z,24.13
2019-02-20T07:43:01.131Z,21.57
2019-02-20T07:45:06.936Z,15.30
2019-02-20T07:47:10.600Z,15.70
2019-02-20T07:49:14.295Z,15.57
2019-02-20T07:51:17.976Z,17.67
2019-02-20T07:53:21.668Z,17.73
2019-02-20T07:55:25.345Z,16.83
2019-02-20T07:57:29.011Z,16.73
2019-02-20T07:59:32.704Z,17.10
2019-02-20T08:01:36.367Z,16.77
2019-02-20T08:03:40.083Z,17.27
2019-02-20T08:05:43.928Z,17.57
2019-02-20T08:07:47.655Z,16.57
2019-02-20T08:09:51.369Z,16.23
2019-02-20T08:11:55.041Z,17.40
2019-02-20T08:13:58.708Z,17.03
2019-02-20T08:16:02.414Z,17.00
2019-02-20T08:18:06.085Z,16.93
2019-02-20T08:20:10.682Z,18.33
2019-02-20T08:22:14.351Z,16.17
2019-02-20T08:24:18.238Z,17.37
2019-02-20T08:26:21.967Z,17.53
2019-02-20T08:28:25.621Z,16.47
2019-02-20T08:30:29.312Z,18.00
2019-02-20T08:32:32.983Z,17.90
2019-02-20T08:34:36.660Z,18.20
2019-02-20T08:36:40.391Z,18.53
2019-02-20T08:38:44.176Z,18.43
2019-02-20T08:40:47.898Z,18.03
2019-02-20T08:42:51.558Z,18.03
2019-02-20T08:44:55.230Z,18.20
2019-02-20T08:46:58.930Z,18.40
2019-02-20T08:49:02.598Z,18.17
2019-02-20T08:51:06.304Z,17.17
2019-02-20T08:53:09.970Z,18.93
2019-02-20T08:55:13.649Z,19.10
2019-02-20T08:57:17.445Z,18.27
2019-02-20T08:59:21.128Z,17.93
2019-02-20T09:01:24.829Z,19.00
2019-02-20T09:03:28.482Z,17.20
2019-02-20T09:05:34.188Z,18.37
2019-02-20T09:07:37.690Z,18.97
2019-02-20T09:09:41.355Z,19.67
2019-02-20T09:11:45.672Z,19.37
2019-02-20T09:13:49.398Z,20.13
2019-02-20T09:15:53.228Z,19.27
2019-02-20T09:17:56.910Z,20.00
2019-02-20T09:20:00.592Z,19.10
2019-02-20T09:22:04.388Z,19.77
2019-02-20T09:24:08.173Z,20.30
2019-02-20T09:26:11.831Z,20.90
2019-02-20T09:28:15.523Z,20.83
2019-02-20T09:30:28.080Z,20.90
2019-02-20T09:32:24.635Z,20.10
2019-02-20T09:34:28.367Z,19.83
2019-02-20T09:36:32.061Z,20.37
2019-02-20T09:38:35.755Z,20.23
2019-02-20T09:40:39.415Z,20.23
2019-02-20T09:42:44.404Z,21.03
2019-02-20T09:44:48.130Z,21.33
2019-02-20T09:46:51.804Z,21.43
2019-02-20T09:48:55.503Z,20.83
2019-02-20T09:50:59.200Z,23.63
2019-02-20T09:53:02.955Z,22.57
2019-02-20T09:55:11.903Z,22.17
2019-02-20T09:57:15.576Z,22.80
2019-02-20T09:59:19.266Z,23.83
2019-02-20T10:01:22.952Z,23.77
2019-02-20T10:03:26.711Z,22.97
2019-02-20T10:05:30.463Z,22.77
2019-02-20T10:07:34.161Z,23.83
2019-02-20T10:09:37.967Z,23.53
2019-02-20T10:11:41.749Z,24.77
2019-02-20T10:13:45.435Z,24.47
2019-02-20T10:15:49.111Z,24.87
2019-02-20T10:17:52.849Z,23.13
2019-02-20T10:19:56.568Z,23.50
2019-02-20T10:22:00.290Z,22.40
2019-02-20T10:24:04.323Z,21.10
2019-02-20T10:26:07.980Z,21.00
2019-02-20T10:28:11.693Z,21.40
2019-02-20T10:30:19.770Z,23.27
2019-02-20T10:32:23.451Z,22.50
2019-02-20T10:34:27.269Z,21.73
2019-02-20T10:36:30.936Z,21.47
2019-02-20T10:38:34.681Z,15.83
2019-02-20T10:40:38.399Z,18.90
2019-02-20T10:42:42.087Z,9.57
2019-02-20T10:44:45.884Z,8.13
2019-02-20T10:46:49.557Z,7.70
2019-02-20T10:48:53.230Z,7.60
2019-02-20T10:50:56.927Z,7.70
2019-02-20T10:53:00.612Z,7.50
2019-02-20T10:55:05.923Z,7.03
2019-02-20T10:57:09.643Z,7.70
2019-02-20T10:59:13.388Z,6.50
2019-02-20T11:01:17.060Z,6.40
2019-02-20T11:03:20.724Z,7.13
2019-02-20T11:05:24.476Z,6.20
2019-02-20T11:07:28.148Z,6.10
2019-02-20T11:09:31.951Z,5.57
2019-02-20T11:11:35.819Z,6.40
2019-02-20T11:13:39.474Z,5.87
2019-02-20T11:15:43.167Z,6.30
2019-02-20T11:17:46.842Z,5.90
2019-02-20T11:19:50.539Z,6.47
2019-02-20T11:21:54.222Z,5.53
2019-02-20T11:23:57.922Z,5.57
2019-02-20T11:26:01.630Z,5.40
2019-02-20T11:28:05.387Z,5.23
2019-02-20T11:30:17.368Z,4.90
2019-02-20T11:32:21.031Z,4.80
2019-02-20T11:34:24.767Z,4.73
2019-02-20T11:36:28.567Z,4.93
2019-02-20T11:38:32.238Z,5.30
2019-02-20T11:40:35.933Z,6.10
2019-02-20T11:42:39.776Z,5.20
2019-02-20T11:44:43.448Z,5.30
2019-02-20T11:46:47.248Z,5.57
2019-02-20T11:48:50.920Z,5.23
2019-02-20T11:50:54.570Z,5.43
2019-02-20T11:52:58.272Z,5.33
2019-02-20T11:55:01.956Z,5.47
2019-02-20T11:57:05.645Z,6.17
2019-02-20T11:59:09.303Z,5.10
2019-02-20T12:01:13.032Z,5.70
2019-02-20T12:03:16.775Z,5.77
2019-02-20T12:05:20.439Z,6.17
2019-02-20T12:07:24.119Z,5.90
2019-02-20T12:09:27.778Z,5.80
2019-02-20T12:11:31.464Z,5.20
2019-02-20T12:13:35.156Z,6.60
2019-02-20T12:15:38.823Z,5.87
2019-02-20T12:17:42.548Z,5.73
2019-02-20T12:19:46.325Z,5.50
2019-02-20T12:21:50.023Z,5.87
2019-02-20T12:23:53.718Z,5.80
2019-02-20T12:25:57.383Z,4.23
2019-02-20T12:28:01.072Z,3.87
2019-02-20T12:30:07.310Z,4.50
2019-02-20T12:32:10.984Z,5.07
2019-02-20T12:34:14.779Z,4.77
2019-02-20T12:36:18.564Z,5.40
2019-02-20T12:38:22.263Z,5.13
2019-02-20T12:40:25.942Z,4.40
2019-02-20T12:42:29.639Z,5.20
2019-02-20T12:44:33.509Z,5.00
2019-02-20T12:46:37.178Z,5.00
2019-02-20T12:48:40.962Z,5.10
2019-02-20T12:50:44.636Z,4.50
2019-02-20T12:52:48.342Z,5.10
2019-02-20T12:54:52.046Z,4.80
2019-02-20T12:56:55.711Z,5.40
2019-02-20T12:59:07.411Z,5.23
2019-02-20T13:01:05.135Z,4.87
2019-02-20T13:03:08.804Z,5.33
2019-02-20T13:05:12.501Z,5.33
2019-02-20T13:07:17.669Z,5.67
2019-02-20T13:09:21.855Z,4.33
2019-02-20T13:11:25.533Z,4.37
2019-02-20T13:13:29.196Z,4.00
2019-02-20T13:15:33.065Z,4.60
2019-02-20T13:17:36.747Z,4.63
2019-02-20T13:19:40.447Z,4.70
2019-02-20T13:21:44.112Z,4.30
2019-02-20T13:23:47.792Z,4.20
2019-02-20T13:25:51.494Z,4.47
2019-02-20T13:27:55.157Z,5.33
2019-02-20T13:29:58.892Z,4.70
2019-02-20T13:32:02.667Z,5.17
2019-02-20T13:34:06.336Z,4.47
2019-02-20T13:36:10.064Z,5.30
2019-02-20T13:38:13.778Z,5.43
2019-02-20T13:40:17.452Z,5.20
2019-02-20T13:42:21.226Z,4.87
2019-02-20T13:44:25.054Z,4.97
2019-02-20T13:46:29.134Z,5.63
2019-02-20T13:48:32.801Z,4.93
2019-02-20T13:50:36.559Z,5.40
2019-02-20T13:52:40.224Z,6.13
2019-02-20T13:54:43.921Z,5.63
2019-02-20T13:56:47.693Z,5.90
2019-02-20T13:58:51.363Z,5.47
2019-02-20T14:00:55.063Z,6.13
2019-02-20T14:02:58.726Z,5.70
2019-02-20T14:05:02.449Z,5.80
2019-02-20T14:07:06.147Z,5.27
2019-02-20T14:09:10.115Z,5.40
2019-02-20T14:11:13.879Z,5.63
2019-02-20T14:13:17.576Z,5.43
2019-02-20T14:15:21.627Z,5.57
2019-02-20T14:17:26.917Z,6.23
2019-02-20T14:19:30.874Z,6.23
2019-02-20T14:21:34.777Z,5.57
2019-02-20T14:23:38.443Z,6.37
2019-02-20T14:25:44.400Z,6.20
2019-02-20T14:27:48.167Z,5.70
2019-02-20T14:29:51.912Z,6.70
2019-02-20T14:31:55.612Z,6.37
2019-02-20T14:33:59.355Z,6.20
2019-02-20T14:36:03.505Z,6.23
2019-02-20T14:38:07.259Z,6.20
2019-02-20T14:40:10.922Z,6.10
2019-02-20T14:42:14.717Z,6.00
2019-02-20T14:44:18.390Z,6.13
2019-02-20T14:46:22.065Z,5.63
2019-02-20T14:48:25.852Z,6.13
2019-02-20T14:50:29.518Z,6.23
2019-02-20T14:52:33.222Z,5.70
2019-02-20T14:54:36.899Z,6.73
2019-02-20T14:56:40.557Z,6.20
2019-02-20T14:58:44.253Z,5.90
2019-02-20T15:00:48.020Z,6.37
2019-02-20T15:02:51.709Z,5.90
2019-02-20T15:04:55.747Z,6.10
2019-02-20T15:06:59.510Z,6.40
2019-02-20T15:09:04.763Z,6.53
2019-02-20T15:11:10.290Z,6.37
2019-02-20T15:13:13.806Z,6.80
2019-02-20T15:15:19.022Z,6.67
2019-02-20T15:17:22.922Z,6.87
2019-02-20T15:19:26.738Z,6.37
2019-02-20T15:21:30.409Z,6.40
2019-02-20T15:23:34.171Z,6.87
2019-02-20T15:25:38.218Z,7.10
2019-02-20T15:27:41.910Z,6.80
2019-02-20T15:29:45.673Z,6.50
2019-02-20T15:31:49.336Z,5.93
2019-02-20T15:33:53.356Z,5.93
2019-02-20T15:35:57.300Z,6.00
2019-02-20T15:38:00.972Z,6.43
2019-02-20T15:40:06.364Z,6.17
2019-02-20T15:42:10.042Z,6.13
2019-02-20T15:44:13.731Z,6.30
2019-02-20T15:46:17.436Z,7.53
2019-02-20T15:48:23.331Z,6.80
2019-02-20T15:50:26.521Z,6.33
2019-02-20T15:52:30.374Z,6.57
2019-02-20T15:54:34.055Z,6.70
2019-02-20T15:56:37.731Z,6.73
2019-02-20T15:58:41.391Z,6.53
2019-02-20T16:00:45.093Z,6.80
2019-02-20T16:02:48.847Z,6.70
2019-02-20T16:04:52.928Z,6.90
2019-02-20T16:06:56.664Z,6.27
2019-02-20T16:09:00.347Z,6.33
2019-02-20T16:11:04.159Z,7.07
2019-02-20T16:13:07.900Z,8.50
2019-02-20T16:15:11.960Z,10.10
2019-02-20T16:17:15.647Z,13.70
2019-02-20T16:19:19.387Z,9.43
2019-02-20T16:21:23.165Z,10.63
2019-02-20T16:23:26.840Z,12.67
2019-02-20T16:25:30.538Z,10.93
2019-02-20T16:27:34.211Z,12.47
2019-02-20T16:29:37.890Z,12.60
2019-02-20T16:31:41.595Z,14.17
2019-02-20T16:33:45.324Z,16.90
2019-02-20T16:35:53.376Z,24.23
2019-02-20T16:37:56.980Z,14.77
2019-02-20T16:40:00.653Z,9.80
2019-02-20T16:42:04.357Z,9.83
2019-02-20T16:44:10.010Z,11.17
2019-02-20T16:46:13.466Z,9.60
2019-02-20T16:48:17.144Z,8.87
2019-02-20T16:50:20.816Z,8.87
2019-02-20T16:52:24.502Z,9.67
2019-02-20T16:54:28.371Z,10.67
2019-02-20T16:56:32.169Z,26.57
2019-02-20T16:58:35.898Z,17.80
2019-02-20T17:00:39.928Z,12.80
2019-02-20T17:02:43.874Z,12.30
2019-02-20T17:04:47.837Z,10.40
2019-02-20T17:06:51.532Z,8.87
2019-02-20T17:08:55.224Z,6.60
2019-02-20T17:10:58.895Z,6.90
2019-02-20T17:13:02.673Z,6.87
2019-02-20T17:15:12.542Z,6.87
2019-02-20T17:17:16.238Z,8.17
2019-02-20T17:19:20.092Z,8.47
2019-02-20T17:21:23.767Z,8.63
2019-02-20T17:23:27.494Z,9.03
2019-02-20T17:25:31.469Z,7.70
2019-02-20T17:27:35.171Z,8.23
2019-02-20T17:29:38.935Z,7.13
2019-02-20T17:31:42.606Z,7.90
2019-02-20T17:33:46.333Z,8.50
2019-02-20T17:35:50.369Z,9.23
2019-02-20T17:37:54.053Z,10.53
2019-02-20T17:39:57.828Z,9.40
2019-02-20T17:42:01.566Z,8.03
2019-02-20T17:44:05.258Z,5.53
2019-02-20T17:46:09.509Z,5.93
2019-02-20T17:48:13.239Z,5.80
2019-02-20T17:50:19.309Z,7.57
2019-02-20T17:52:23.242Z,6.57
2019-02-20T17:54:26.939Z,6.23
2019-02-20T17:56:30.991Z,5.70
2019-02-20T17:58:34.664Z,6.20
2019-02-20T18:00:38.470Z,6.33
2019-02-20T18:02:42.141Z,8.23
2019-02-20T18:04:45.845Z,6.87
2019-02-20T18:06:49.499Z,6.03
2019-02-20T18:08:53.301Z,6.33
2019-02-20T18:10:57.006Z,6.90
2019-02-20T18:13:00.673Z,6.10
2019-02-20T18:15:05.808Z,5.50
2019-02-20T18:17:09.471Z,7.47
2019-02-20T18:19:13.159Z,6.83
2019-02-20T18:21:16.844Z,6.03
2019-02-20T18:23:20.630Z,7.17
2019-02-20T18:25:24.307Z,6.50
2019-02-20T18:27:27.988Z,6.87
2019-02-20T18:29:31.724Z,8.30
2019-02-20T18:31:35.430Z,8.67
2019-02-20T18:33:39.112Z,7.53
2019-02-20T18:35:42.816Z,6.50
2019-02-20T18:37:46.602Z,6.40
2019-02-20T18:39:50.266Z,7.57
2019-02-20T18:41:53.953Z,8.67
2019-02-20T18:43:57.624Z,9.60
2019-02-20T18:46:01.436Z,9.03
2019-02-20T18:48:05.114Z,8.73
2019-02-20T18:50:11.384Z,9.77
2019-02-20T18:52:15.105Z,8.00
2019-02-20T18:54:18.866Z,8.13
2019-02-20T18:56:22.608Z,7.27
2019-02-20T18:58:33.742Z,7.33
2019-02-20T19:00:31.918Z,7.53
2019-02-20T19:02:35.626Z,8.13
2019-02-20T19:04:39.310Z,7.30
2019-02-20T19:06:43.077Z,7.43
2019-02-20T19:08:49.349Z,7.33
2019-02-20T19:10:55.977Z,7.40
2019-02-20T19:13:11.808Z,6.83
2019-02-20T19:15:44.451Z,7.57
2019-02-20T19:18:09.339Z,6.67
2019-02-20T19:20:24.914Z,8.10
2019-02-20T19:22:34.351Z,7.30
2019-02-20T19:24:46.735Z,5.77
2019-02-20T19:27:13.691Z,5.13
2019-02-20T19:29:45.587Z,5.83
2019-02-20T19:32:04.498Z,6.37
2019-02-20T19:34:11.203Z,6.60
2019-02-20T19:36:35.867Z,12.20
2019-02-20T19:38:45.421Z,8.37
2019-02-20T19:40:52.034Z,7.30
2019-02-20T19:43:01.587Z,6.93
2019-02-20T19:45:22.993Z,5.67
2019-02-20T19:47:35.391Z,6.57
2019-02-20T19:49:42.087Z,12.33
2019-02-20T19:52:06.920Z,12.27
2019-02-20T19:54:16.142Z,6.50
2019-02-20T19:56:40.725Z,8.60
2019-02-20T19:59:10.107Z,7.13
2019-02-20T20:01:31.623Z,5.53
2019-02-20T20:03:59.051Z,5.83
2019-02-20T20:06:08.610Z,5.50
2019-02-20T20:08:15.280Z,10.23
2019-02-20T20:10:33.506Z,9.37
2019-02-20T20:12:59.460Z,7.07
2019-02-20T20:15:27.488Z,8.20
2019-02-20T20:17:50.398Z,9.93
2019-02-20T20:19:57.101Z,11.83
2019-02-20T20:22:37.254Z,10.80
2019-02-20T20:24:47.029Z,11.43
2019-02-20T20:26:59.034Z,12.07
2019-02-20T20:29:22.193Z,15.00
2019-02-20T20:31:43.652Z,12.63
2019-02-20T20:34:07.250Z,11.70
2019-02-20T20:36:19.402Z,11.03
2019-02-20T20:38:59.151Z,10.47
2019-02-20T20:41:17.346Z,10.33
2019-02-20T20:43:36.080Z,12.20
2019-02-20T20:45:42.753Z,11.97
2019-02-20T20:48:12.001Z,11.87
2019-02-20T20:50:16.907Z,13.17
2019-02-20T20:52:26.423Z,11.70
2019-02-20T20:54:54.917Z,12.00
2019-02-20T20:57:20.035Z,11.17
2019-02-20T20:59:26.665Z,10.77
2019-02-20T21:01:41.899Z,10.03
2019-02-20T21:03:57.058Z,11.10
2019-02-20T21:06:25.016Z,11.00
2019-02-20T21:08:34.123Z,10.23
2019-02-20T21:11:05.139Z,10.33
2019-02-20T21:13:23.429Z,10.33
2019-02-20T21:15:58.795Z,9.87
2019-02-20T21:18:24.935Z,9.20
2019-02-20T21:20:48.284Z,9.40
2019-02-20T21:23:04.041Z,9.70
2019-02-20T21:25:19.513Z,10.00
2019-02-20T21:27:47.716Z,9.57
2019-02-20T21:30:03.256Z,8.30
2019-02-20T21:32:12.697Z,9.10
2019-02-20T21:34:40.356Z,8.53
2019-02-20T21:36:59.062Z,8.20
2019-02-20T21:39:22.095Z,8.37
2019-02-20T21:41:55.581Z,8.27
2019-02-20T21:44:33.693Z,8.43
2019-02-20T21:46:55.170Z,8.70
2019-02-20T21:49:04.365Z,8.50
2019-02-20T21:51:13.477Z,7.50
2019-02-20T21:53:20.107Z,8.03
2019-02-20T21:56:00.116Z,7.73
2019-02-20T21:58:09.677Z,9.07
2019-02-20T22:00:38.965Z,8.87
2019-02-20T22:02:48.158Z,6.63
2019-02-20T22:04:59.784Z,6.73
2019-02-20T22:07:09.336Z,6.73
2019-02-20T22:09:18.772Z,6.23
2019-02-20T22:11:39.407Z,7.13
2019-02-20T22:13:57.787Z,6.47
2019-02-20T22:16:31.870Z,7.10
2019-02-20T22:18:50.232Z,7.97
2019-02-20T22:21:13.624Z,7.87
2019-02-20T22:23:25.938Z,11.83
2019-02-20T22:25:41.609Z,15.63
2019-02-20T22:27:51.034Z,15.43
2019-02-20T22:30:06.682Z,19.20
2019-02-20T22:32:16.166Z,17.10
2019-02-20T22:34:34.711Z,13.20
2019-02-20T22:36:41.318Z,12.50
2019-02-20T22:38:54.122Z,10.87
2019-02-20T22:41:06.491Z,10.17
2019-02-20T22:43:15.690Z,10.87
2019-02-20T22:45:30.598Z,11.13
2019-02-20T22:47:54.192Z,11.27
2019-02-20T22:50:09.318Z,11.40
2019-02-20T22:52:24.957Z,11.97
2019-02-20T22:54:53.791Z,11.60
2019-02-20T22:57:06.626Z,11.07
2019-02-20T22:59:45.092Z,11.67
2019-02-20T23:02:12.320Z,17.50
2019-02-20T23:04:35.015Z,16.70
2019-02-20T23:06:50.445Z,14.47
2019-02-20T23:09:09.094Z,12.13
2019-02-20T23:11:30.584Z,12.47
2019-02-20T23:13:48.823Z,12.67
2019-02-20T23:15:52.531Z,11.60
2019-02-20T23:17:56.279Z,10.63
2019-02-20T23:20:00.049Z,11.37
2019-02-20T23:22:03.735Z,10.80
2019-02-20T23:24:07.396Z,10.57
2019-02-20T23:26:11.082Z,11.50
2019-02-20T23:28:14.791Z,11.17
2019-02-20T23:30:18.456Z,10.77
2019-02-20T23:32:22.254Z,11.90
2019-02-20T23:34:25.966Z,12.33
2019-02-20T23:36:29.672Z,11.47
2019-02-20T23:38:33.538Z,10.57
2019-02-20T23:40:37.205Z,10.17
2019-02-20T23:42:40.907Z,10.83
2019-02-20T23:44:44.566Z,9.97
2019-02-20T23:46:48.227Z,9.30
2019-02-20T23:48:51.903Z,9.80
2019-02-20T23:50:55.567Z,9.70
2019-02-20T23:52:59.246Z,9.53
2019-02-20T23:55:04.620Z,10.70
2019-02-20T23:57:08.290Z,10.37
2019-02-20T23:59:13.895Z,10.33
